sensor_id;sensor_type;location;lat;lon;timestamp;P1;durP1;ratioP1;P2;durP2;ratioP2
40815;SDS011;26535;48.788;9.214;2023-03-01T00:01:00;25.15;;;14.13;;
40815;SDS011;26535;48.788;9.214;2023-03-01T00:03:30;24.55;;;14.32;;
40815;SDS011;26535;48.788;9.214;2023-03-01T00:05:56;25.88;;;14.57;;
40815;SDS011;26535;48.788;9.214;2023-03-01T00:08:23;23.08;;;14.20;;
40815;SDS011;26535;48.788;9.214;2023-03-01T00:11:06;24.27;;;14.07;;
40815;SDS011;26535;48.788;9.214;2023-03-01T00:13:33;24.15;;;13.80;;
40815;SDS011;26535;48.788;9.214;2023-03-01T00:16:01;25.08;;;14.27;;
40815;SDS011;26535;48.788;9.214;2023-03-01T00:18:38;23.08;;;13.77;;
40815;SDS011;26535;48.788;9.214;2023-03-01T00:21:04;21.77;;;13.07;;
40815;SDS011;26535;48.788;9.214;2023-03-01T00:23:30;23.10;;;14.13;;
40815;SDS011;26535;48.788;9.214;2023-03-01T00:25:56;24.63;;;13.68;;
40815;SDS011;26535;48.788;9.214;2023-03-01T00:28:22;24.50;;;14.15;;
40815;SDS011;26535;48.788;9.214;2023-03-01T06:01:45;25.13;;;14.13;;
40815;SDS011;26535;48.788;9.214;2023-03-01T06:04:11;24.15;;;15.25;;
40815;SDS011;26535;48.788;9.214;2023-03-01T06:06:37;24.30;;;14.18;;
40815;SDS011;26535;48.788;9.214;2023-03-01T06:09:04;25.60;;;14.85;;
40815;SDS011;26535;48.788;9.214;2023-03-01T06:11:33;26.88;;;15.40;;
40815;SDS011;26535;48.788;9.214;2023-03-01T06:14:00;25.63;;;14.23;;
40815;SDS011;26535;48.788;9.214;2023-03-01T06:16:26;25.38;;;14.40;;
40815;SDS011;26535;48.788;9.214;2023-03-01T06:18:52;26.02;;;14.48;;
40815;SDS011;26535;48.788;9.214;2023-03-01T06:21:18;24.92;;;14.75;;
40815;SDS011;26535;48.788;9.214;2023-03-01T06:23:43;26.10;;;14.65;;
40815;SDS011;26535;48.788;9.214;2023-03-01T06:26:09;27.13;;;15.18;;
40815;SDS011;26535;48.788;9.214;2023-03-01T06:28:35;27.52;;;14.77;;
40815;SDS011;26535;48.788;9.214;2023-03-01T06:31:01;24.67;;;14.27;;
40815;SDS011;26535;48.788;9.214;2023-03-01T06:33:27;24.00;;;15.05;;
40815;SDS011;26535;48.788;9.214;2023-03-01T06:35:56;29.55;;;15.27;;
40815;SDS011;26535;48.788;9.214;2023-03-01T06:38:22;27.80;;;14.93;;
40815;SDS011;26535;48.788;9.214;2023-03-01T06:40:53;29.33;;;15.23;;
40815;SDS011;26535;48.788;9.214;2023-03-01T06:43:20;21.80;;;13.98;;
40815;SDS011;26535;48.788;9.214;2023-03-01T06:45:46;24.65;;;14.48;;
40815;SDS011;26535;48.788;9.214;2023-03-01T06:48:12;27.63;;;14.82;;
40815;SDS011;26535;48.788;9.214;2023-03-01T06:50:40;26.23;;;14.90;;
40815;SDS011;26535;48.788;9.214;2023-03-01T06:53:06;24.38;;;14.65;;
40815;SDS011;26535;48.788;9.214;2023-03-01T06:55:32;28.30;;;15.43;;
40815;SDS011;26535;48.788;9.214;2023-03-01T06:57:58;26.30;;;14.65;;
40815;SDS011;26535;48.788;9.214;2023-03-01T07:00:25;24.92;;;14.50;;
40815;SDS011;26535;48.788;9.214;2023-03-01T07:02:52;26.98;;;14.43;;
40815;SDS011;26535;48.788;9.214;2023-03-01T07:05:18;25.13;;;14.90;;
40815;SDS011;26535;48.788;9.214;2023-03-01T07:07:44;26.52;;;14.93;;
40815;SDS011;26535;48.788;9.214;2023-03-01T07:10:10;25.45;;;14.65;;
40815;SDS011;26535;48.788;9.214;2023-03-01T07:12:36;28.15;;;16.73;;
40815;SDS011;26535;48.788;9.214;2023-03-01T07:15:02;24.20;;;14.77;;
40815;SDS011;26535;48.788;9.214;2023-03-01T07:17:28;31.00;;;16.50;;
40815;SDS011;26535;48.788;9.214;2023-03-01T07:19:55;27.35;;;15.13;;
40815;SDS011;26535;48.788;9.214;2023-03-01T07:22:21;27.58;;;15.73;;
40815;SDS011;26535;48.788;9.214;2023-03-01T07:24:47;28.10;;;15.13;;
40815;SDS011;26535;48.788;9.214;2023-03-01T07:27:13;26.50;;;15.43;;
40815;SDS011;26535;48.788;9.214;2023-03-01T07:29:38;27.90;;;15.65;;
40815;SDS011;26535;48.788;9.214;2023-03-01T07:32:04;27.35;;;15.73;;
40815;SDS011;26535;48.788;9.214;2023-03-01T07:34:32;28.33;;;15.45;;
40815;SDS011;26535;48.788;9.214;2023-03-01T07:36:57;27.42;;;15.38;;
40815;SDS011;26535;48.788;9.214;2023-03-01T07:39:23;32.05;;;16.15;;
40815;SDS011;26535;48.788;9.214;2023-03-01T07:41:49;25.90;;;14.55;;
40815;SDS011;26535;48.788;9.214;2023-03-01T07:44:19;27.13;;;15.70;;
40815;SDS011;26535;48.788;9.214;2023-03-01T07:46:45;29.15;;;15.73;;
40815;SDS011;26535;48.788;9.214;2023-03-01T07:49:11;30.23;;;16.00;;
40815;SDS011;26535;48.788;9.214;2023-03-01T07:51:37;27.17;;;15.60;;
40815;SDS011;26535;48.788;9.214;2023-03-01T07:54:03;29.33;;;15.43;;
40815;SDS011;26535;48.788;9.214;2023-03-01T07:56:29;32.15;;;16.35;;
40815;SDS011;26535;48.788;9.214;2023-03-01T07:58:54;30.27;;;15.82;;
40815;SDS011;26535;48.788;9.214;2023-03-01T08:01:20;27.10;;;15.32;;
40815;SDS011;26535;48.788;9.214;2023-03-01T08:03:47;30.20;;;16.58;;
40815;SDS011;26535;48.788;9.214;2023-03-01T08:06:16;31.55;;;16.63;;
40815;SDS011;26535;48.788;9.214;2023-03-01T08:08:43;29.02;;;15.80;;
40815;SDS011;26535;48.788;9.214;2023-03-01T08:11:12;29.17;;;16.23;;
40815;SDS011;26535;48.788;9.214;2023-03-01T08:13:39;28.85;;;15.30;;
40815;SDS011;26535;48.788;9.214;2023-03-01T08:16:06;28.23;;;16.15;;
40815;SDS011;26535;48.788;9.214;2023-03-01T08:18:34;27.67;;;16.40;;
40815;SDS011;26535;48.788;9.214;2023-03-01T08:21:05;26.58;;;15.45;;
40815;SDS011;26535;48.788;9.214;2023-03-01T08:23:32;27.08;;;15.48;;
40815;SDS011;26535;48.788;9.214;2023-03-01T08:28:31;28.70;;;16.42;;
40815;SDS011;26535;48.788;9.214;2023-03-01T08:30:57;31.42;;;16.33;;
40815;SDS011;26535;48.788;9.214;2023-03-01T08:33:23;28.08;;;15.90;;
40815;SDS011;26535;48.788;9.214;2023-03-01T08:35:48;26.65;;;15.32;;
40815;SDS011;26535;48.788;9.214;2023-03-01T08:38:14;26.17;;;15.48;;
40815;SDS011;26535;48.788;9.214;2023-03-01T08:40:40;31.02;;;18.20;;
40815;SDS011;26535;48.788;9.214;2023-03-01T08:43:05;28.50;;;15.95;;
40815;SDS011;26535;48.788;9.214;2023-03-01T08:45:31;25.73;;;16.10;;
40815;SDS011;26535;48.788;9.214;2023-03-01T08:47:57;27.10;;;15.95;;
40815;SDS011;26535;48.788;9.214;2023-03-01T08:50:23;27.00;;;15.90;;
40815;SDS011;26535;48.788;9.214;2023-03-01T08:52:49;29.02;;;16.05;;
40815;SDS011;26535;48.788;9.214;2023-03-01T08:55:15;29.58;;;15.93;;
40815;SDS011;26535;48.788;9.214;2023-03-01T08:57:42;27.67;;;16.63;;
40815;SDS011;26535;48.788;9.214;2023-03-01T09:00:09;25.85;;;15.23;;
40815;SDS011;26535;48.788;9.214;2023-03-01T09:02:36;27.60;;;15.67;;
40815;SDS011;26535;48.788;9.214;2023-03-01T09:05:02;28.40;;;14.90;;
40815;SDS011;26535;48.788;9.214;2023-03-01T09:07:28;28.90;;;16.15;;
40815;SDS011;26535;48.788;9.214;2023-03-01T09:09:54;27.92;;;15.85;;
40815;SDS011;26535;48.788;9.214;2023-03-01T09:12:20;29.92;;;16.45;;
40815;SDS011;26535;48.788;9.214;2023-03-01T09:14:46;25.38;;;15.05;;
40815;SDS011;26535;48.788;9.214;2023-03-01T09:17:12;27.10;;;16.20;;
40815;SDS011;26535;48.788;9.214;2023-03-01T09:19:37;28.65;;;16.20;;
40815;SDS011;26535;48.788;9.214;2023-03-01T09:22:06;27.33;;;15.85;;
40815;SDS011;26535;48.788;9.214;2023-03-01T09:24:31;24.90;;;15.32;;
40815;SDS011;26535;48.788;9.214;2023-03-01T09:26:57;28.52;;;16.05;;
40815;SDS011;26535;48.788;9.214;2023-03-01T09:29:23;28.00;;;15.25;;
40815;SDS011;26535;48.788;9.214;2023-03-01T09:31:49;27.00;;;15.60;;
40815;SDS011;26535;48.788;9.214;2023-03-01T09:34:14;28.77;;;16.15;;
40815;SDS011;26535;48.788;9.214;2023-03-01T09:36:44;25.70;;;15.63;;
40815;SDS011;26535;48.788;9.214;2023-03-01T09:39:10;28.15;;;16.23;;
40815;SDS011;26535;48.788;9.214;2023-03-01T09:41:46;26.98;;;16.88;;
40815;SDS011;26535;48.788;9.214;2023-03-01T09:47:23;29.00;;;16.20;;
40815;SDS011;26535;48.788;9.214;2023-03-01T09:52:43;27.92;;;15.38;;
40815;SDS011;26535;48.788;9.214;2023-03-01T09:55:26;23.42;;;13.55;;
40815;SDS011;26535;48.788;9.214;2023-03-01T10:00:56;22.33;;;13.95;;
40815;SDS011;26535;48.788;9.214;2023-03-01T10:03:42;26.40;;;15.05;;
40815;SDS011;26535;48.788;9.214;2023-03-01T10:06:14;22.13;;;14.32;;
40815;SDS011;26535;48.788;9.214;2023-03-01T10:08:56;26.90;;;14.18;;
40815;SDS011;26535;48.788;9.214;2023-03-01T10:11:33;25.00;;;13.98;;
40815;SDS011;26535;48.788;9.214;2023-03-01T10:14:23;27.33;;;14.60;;
40815;SDS011;26535;48.788;9.214;2023-03-01T10:17:12;24.65;;;13.50;;
40815;SDS011;26535;48.788;9.214;2023-03-01T10:19:46;25.00;;;14.85;;
40815;SDS011;26535;48.788;9.214;2023-03-01T10:22:16;24.77;;;14.65;;
40815;SDS011;26535;48.788;9.214;2023-03-01T10:24:46;22.02;;;14.20;;
40815;SDS011;26535;48.788;9.214;2023-03-01T10:27:21;25.08;;;14.63;;
40815;SDS011;26535;48.788;9.214;2023-03-01T10:30:02;26.92;;;15.20;;
40815;SDS011;26535;48.788;9.214;2023-03-01T10:32:31;23.90;;;14.30;;
40815;SDS011;26535;48.788;9.214;2023-03-01T10:34:57;22.45;;;13.65;;
40815;SDS011;26535;48.788;9.214;2023-03-01T10:37:23;22.50;;;12.75;;
40815;SDS011;26535;48.788;9.214;2023-03-01T10:42:28;21.95;;;13.77;;
40815;SDS011;26535;48.788;9.214;2023-03-01T10:44:56;22.60;;;13.55;;
40815;SDS011;26535;48.788;9.214;2023-03-01T10:47:23;24.05;;;13.38;;
40815;SDS011;26535;48.788;9.214;2023-03-01T10:52:21;23.38;;;13.35;;
40815;SDS011;26535;48.788;9.214;2023-03-01T10:54:52;29.23;;;13.55;;
40815;SDS011;26535;48.788;9.214;2023-03-01T10:57:28;24.23;;;13.70;;
40815;SDS011;26535;48.788;9.214;2023-03-01T11:00:10;22.58;;;13.38;;
40815;SDS011;26535;48.788;9.214;2023-03-01T11:02:42;22.77;;;13.85;;
40815;SDS011;26535;48.788;9.214;2023-03-01T11:07:49;19.92;;;13.15;;
40815;SDS011;26535;48.788;9.214;2023-03-01T11:10:18;21.35;;;13.70;;
40815;SDS011;26535;48.788;9.214;2023-03-01T11:12:46;21.33;;;14.63;;
40815;SDS011;26535;48.788;9.214;2023-03-01T11:15:20;22.27;;;13.98;;
40815;SDS011;26535;48.788;9.214;2023-03-01T11:17:53;20.58;;;13.10;;
40815;SDS011;26535;48.788;9.214;2023-03-01T11:20:29;19.35;;;12.93;;
40815;SDS011;26535;48.788;9.214;2023-03-01T11:23:01;20.73;;;13.45;;
40815;SDS011;26535;48.788;9.214;2023-03-01T11:25:33;21.33;;;13.55;;
40815;SDS011;26535;48.788;9.214;2023-03-01T11:28:06;17.73;;;12.65;;
40815;SDS011;26535;48.788;9.214;2023-03-01T11:30:43;18.30;;;12.90;;
40815;SDS011;26535;48.788;9.214;2023-03-01T11:35:57;17.50;;;12.57;;
40815;SDS011;26535;48.788;9.214;2023-03-01T11:38:32;16.40;;;13.07;;
40815;SDS011;26535;48.788;9.214;2023-03-01T11:41:21;16.95;;;12.15;;
40815;SDS011;26535;48.788;9.214;2023-03-01T11:46:29;18.52;;;12.57;;
40815;SDS011;26535;48.788;9.214;2023-03-01T11:54:27;17.63;;;12.60;;
40815;SDS011;26535;48.788;9.214;2023-03-01T12:11:29;16.70;;;12.15;;
40815;SDS011;26535;48.788;9.214;2023-03-01T12:14:30;18.63;;;12.10;;
40815;SDS011;26535;48.788;9.214;2023-03-01T12:25:41;13.20;;;10.50;;
40815;SDS011;26535;48.788;9.214;2023-03-01T12:28:37;14.77;;;10.77;;
40815;SDS011;26535;48.788;9.214;2023-03-01T12:36:46;23.98;;;11.45;;
40815;SDS011;26535;48.788;9.214;2023-03-01T12:47:30;23.88;;;11.82;;
40815;SDS011;26535;48.788;9.214;2023-03-01T12:50:26;19.23;;;10.93;;
40815;SDS011;26535;48.788;9.214;2023-03-01T12:53:05;18.80;;;11.02;;
40815;SDS011;26535;48.788;9.214;2023-03-01T12:55:41;14.38;;;10.98;;
40815;SDS011;26535;48.788;9.214;2023-03-01T13:01:13;12.63;;;10.27;;
40815;SDS011;26535;48.788;9.214;2023-03-01T13:03:59;13.25;;;10.60;;
40815;SDS011;26535;48.788;9.214;2023-03-01T13:06:49;13.15;;;9.57;;
40815;SDS011;26535;48.788;9.214;2023-03-01T13:09:44;16.35;;;11.63;;
40815;SDS011;26535;48.788;9.214;2023-03-01T13:17:49;12.13;;;9.85;;
40815;SDS011;26535;48.788;9.214;2023-03-01T13:20:22;12.73;;;10.45;;
40815;SDS011;26535;48.788;9.214;2023-03-01T13:31:06;13.45;;;10.88;;
40815;SDS011;26535;48.788;9.214;2023-03-01T13:46:49;15.95;;;12.20;;
40815;SDS011;26535;48.788;9.214;2023-03-01T13:49:20;15.77;;;12.23;;
40815;SDS011;26535;48.788;9.214;2023-03-01T13:51:49;14.73;;;11.93;;
40815;SDS011;26535;48.788;9.214;2023-03-01T13:54:16;16.88;;;12.57;;
40815;SDS011;26535;48.788;9.214;2023-03-01T13:57:04;14.98;;;12.40;;
40815;SDS011;26535;48.788;9.214;2023-03-01T13:59:30;14.48;;;12.32;;
40815;SDS011;26535;48.788;9.214;2023-03-01T14:01:57;17.40;;;13.15;;
40815;SDS011;26535;48.788;9.214;2023-03-01T14:04:25;15.80;;;13.05;;
40815;SDS011;26535;48.788;9.214;2023-03-01T14:10:04;17.55;;;13.20;;
40815;SDS011;26535;48.788;9.214;2023-03-01T14:20:49;15.77;;;13.50;;
40815;SDS011;26535;48.788;9.214;2023-03-01T14:23:22;16.92;;;13.48;;
40815;SDS011;26535;48.788;9.214;2023-03-01T14:25:50;18.08;;;13.93;;
40815;SDS011;26535;48.788;9.214;2023-03-01T14:28:19;17.85;;;13.18;;
40815;SDS011;26535;48.788;9.214;2023-03-01T14:30:59;18.02;;;13.45;;
40815;SDS011;26535;48.788;9.214;2023-03-01T14:33:30;18.75;;;13.25;;
40815;SDS011;26535;48.788;9.214;2023-03-01T14:36:08;17.55;;;14.20;;
40815;SDS011;26535;48.788;9.214;2023-03-01T14:38:36;17.25;;;13.70;;
40815;SDS011;26535;48.788;9.214;2023-03-01T14:41:13;18.00;;;13.45;;
40815;SDS011;26535;48.788;9.214;2023-03-01T14:43:44;18.60;;;13.00;;
40815;SDS011;26535;48.788;9.214;2023-03-01T14:46:32;17.17;;;13.43;;
40815;SDS011;26535;48.788;9.214;2023-03-01T14:49:23;16.48;;;12.98;;
40815;SDS011;26535;48.788;9.214;2023-03-01T14:54:48;16.08;;;12.55;;
40815;SDS011;26535;48.788;9.214;2023-03-01T14:57:24;16.40;;;12.93;;
40815;SDS011;26535;48.788;9.214;2023-03-01T14:59:51;18.58;;;12.95;;
40815;SDS011;26535;48.788;9.214;2023-03-01T15:02:21;19.40;;;13.70;;
40815;SDS011;26535;48.788;9.214;2023-03-01T15:04:49;16.42;;;13.65;;
40815;SDS011;26535;48.788;9.214;2023-03-01T15:07:17;16.55;;;13.50;;
40815;SDS011;26535;48.788;9.214;2023-03-01T15:09:44;17.42;;;13.38;;
40815;SDS011;26535;48.788;9.214;2023-03-01T15:15:18;15.75;;;13.00;;
40815;SDS011;26535;48.788;9.214;2023-03-01T15:17:48;17.30;;;13.70;;
40815;SDS011;26535;48.788;9.214;2023-03-01T15:20:20;18.58;;;14.07;;
40815;SDS011;26535;48.788;9.214;2023-03-01T15:22:50;17.17;;;13.43;;
40815;SDS011;26535;48.788;9.214;2023-03-01T15:25:24;19.15;;;13.63;;
40815;SDS011;26535;48.788;9.214;2023-03-01T15:27:52;18.73;;;13.43;;
40815;SDS011;26535;48.788;9.214;2023-03-01T15:30:21;18.48;;;13.80;;
40815;SDS011;26535;48.788;9.214;2023-03-01T15:33:15;18.70;;;12.98;;
40815;SDS011;26535;48.788;9.214;2023-03-01T15:35:48;17.48;;;13.07;;
40815;SDS011;26535;48.788;9.214;2023-03-01T15:40:55;20.15;;;13.48;;
40815;SDS011;26535;48.788;9.214;2023-03-01T15:46:14;18.95;;;13.68;;
40815;SDS011;26535;48.788;9.214;2023-03-01T15:48:49;18.55;;;13.13;;
40815;SDS011;26535;48.788;9.214;2023-03-01T15:51:17;18.42;;;13.63;;
40815;SDS011;26535;48.788;9.214;2023-03-01T15:53:49;17.88;;;13.05;;
40815;SDS011;26535;48.788;9.214;2023-03-01T15:56:18;20.38;;;13.45;;
40815;SDS011;26535;48.788;9.214;2023-03-01T15:58:44;18.95;;;13.23;;
40815;SDS011;26535;48.788;9.214;2023-03-01T16:01:16;19.95;;;13.65;;
40815;SDS011;26535;48.788;9.214;2023-03-01T16:03:42;20.15;;;13.43;;
40815;SDS011;26535;48.788;9.214;2023-03-01T16:06:09;21.13;;;14.07;;
40815;SDS011;26535;48.788;9.214;2023-03-01T16:08:36;21.70;;;13.82;;
40815;SDS011;26535;48.788;9.214;2023-03-01T16:11:03;21.42;;;13.18;;
40815;SDS011;26535;48.788;9.214;2023-03-01T16:13:38;22.30;;;13.45;;
40815;SDS011;26535;48.788;9.214;2023-03-01T16:16:04;21.63;;;13.68;;
40815;SDS011;26535;48.788;9.214;2023-03-01T16:18:30;19.33;;;13.68;;
40815;SDS011;26535;48.788;9.214;2023-03-01T16:20:56;19.10;;;12.93;;
40815;SDS011;26535;48.788;9.214;2023-03-01T16:23:21;18.15;;;12.40;;
40815;SDS011;26535;48.788;9.214;2023-03-01T16:25:50;19.67;;;13.02;;
40815;SDS011;26535;48.788;9.214;2023-03-01T16:28:15;19.85;;;13.52;;
40815;SDS011;26535;48.788;9.214;2023-03-01T16:30:45;20.85;;;13.55;;
40815;SDS011;26535;48.788;9.214;2023-03-01T16:33:13;19.50;;;12.57;;
40815;SDS011;26535;48.788;9.214;2023-03-01T16:35:39;20.27;;;12.90;;
40815;SDS011;26535;48.788;9.214;2023-03-01T16:38:05;19.70;;;12.30;;
40815;SDS011;26535;48.788;9.214;2023-03-01T16:40:31;21.73;;;12.77;;
40815;SDS011;26535;48.788;9.214;2023-03-01T16:42:57;20.00;;;12.75;;
40815;SDS011;26535;48.788;9.214;2023-03-01T16:45:27;21.58;;;12.88;;
40815;SDS011;26535;48.788;9.214;2023-03-01T16:47:57;21.67;;;12.90;;
40815;SDS011;26535;48.788;9.214;2023-03-01T16:50:23;21.20;;;13.00;;
40815;SDS011;26535;48.788;9.214;2023-03-01T16:52:50;22.00;;;13.25;;
40815;SDS011;26535;48.788;9.214;2023-03-01T16:55:16;22.35;;;13.70;;
40815;SDS011;26535;48.788;9.214;2023-03-01T16:57:42;21.55;;;13.05;;
40815;SDS011;26535;48.788;9.214;2023-03-01T17:00:09;22.10;;;12.88;;
40815;SDS011;26535;48.788;9.214;2023-03-01T17:02:37;20.55;;;12.63;;
40815;SDS011;26535;48.788;9.214;2023-03-01T17:05:04;23.38;;;12.90;;
40815;SDS011;26535;48.788;9.214;2023-03-01T17:07:31;20.45;;;12.38;;
40815;SDS011;26535;48.788;9.214;2023-03-01T17:10:01;21.95;;;12.75;;
40815;SDS011;26535;48.788;9.214;2023-03-01T17:12:28;21.88;;;13.35;;
40815;SDS011;26535;48.788;9.214;2023-03-01T17:14:54;23.33;;;12.93;;
40815;SDS011;26535;48.788;9.214;2023-03-01T17:17:20;23.63;;;13.73;;
40815;SDS011;26535;48.788;9.214;2023-03-01T17:19:46;23.80;;;13.40;;
40815;SDS011;26535;48.788;9.214;2023-03-01T17:22:12;25.35;;;14.60;;
40815;SDS011;26535;48.788;9.214;2023-03-01T17:24:38;23.65;;;13.25;;
40815;SDS011;26535;48.788;9.214;2023-03-01T17:27:05;28.13;;;14.75;;
40815;SDS011;26535;48.788;9.214;2023-03-01T17:29:32;25.17;;;14.77;;
40815;SDS011;26535;48.788;9.214;2023-03-01T17:31:58;28.17;;;14.90;;
40815;SDS011;26535;48.788;9.214;2023-03-01T17:34:24;24.17;;;14.38;;
40815;SDS011;26535;48.788;9.214;2023-03-01T17:36:51;23.83;;;14.13;;
40815;SDS011;26535;48.788;9.214;2023-03-01T17:39:17;23.15;;;13.88;;
40815;SDS011;26535;48.788;9.214;2023-03-01T17:41:50;27.73;;;13.93;;
40815;SDS011;26535;48.788;9.214;2023-03-01T17:44:16;24.10;;;14.18;;
40815;SDS011;26535;48.788;9.214;2023-03-01T17:46:42;24.52;;;12.98;;
40815;SDS011;26535;48.788;9.214;2023-03-01T17:49:08;23.60;;;13.55;;
40815;SDS011;26535;48.788;9.214;2023-03-01T17:51:34;23.33;;;13.45;;
40815;SDS011;26535;48.788;9.214;2023-03-01T17:54:01;24.75;;;14.18;;
40815;SDS011;26535;48.788;9.214;2023-03-01T17:56:27;25.73;;;14.77;;
40815;SDS011;26535;48.788;9.214;2023-03-01T17:58:53;23.45;;;15.15;;
40815;SDS011;26535;48.788;9.214;2023-03-01T18:01:20;23.23;;;14.23;;
40815;SDS011;26535;48.788;9.214;2023-03-01T18:04:00;25.10;;;14.05;;
40815;SDS011;26535;48.788;9.214;2023-03-01T18:06:26;26.23;;;14.88;;
40815;SDS011;26535;48.788;9.214;2023-03-01T18:08:54;27.30;;;15.48;;
40815;SDS011;26535;48.788;9.214;2023-03-01T18:11:21;27.37;;;14.80;;
40815;SDS011;26535;48.788;9.214;2023-03-01T18:16:16;27.17;;;14.20;;
40815;SDS011;26535;48.788;9.214;2023-03-01T18:18:43;26.25;;;13.75;;
40815;SDS011;26535;48.788;9.214;2023-03-01T18:21:10;26.60;;;14.68;;
40815;SDS011;26535;48.788;9.214;2023-03-01T18:23:37;28.83;;;14.93;;
40815;SDS011;26535;48.788;9.214;2023-03-01T18:26:07;26.15;;;14.68;;
40815;SDS011;26535;48.788;9.214;2023-03-01T18:28:35;28.90;;;15.43;;
40815;SDS011;26535;48.788;9.214;2023-03-01T18:31:06;25.33;;;14.43;;
40815;SDS011;26535;48.788;9.214;2023-03-01T18:33:34;27.42;;;15.80;;
40815;SDS011;26535;48.788;9.214;2023-03-01T18:36:01;30.38;;;15.70;;
40815;SDS011;26535;48.788;9.214;2023-03-01T18:38:27;26.83;;;15.52;;
40815;SDS011;26535;48.788;9.214;2023-03-01T18:40:56;28.35;;;15.95;;
40815;SDS011;26535;48.788;9.214;2023-03-01T18:43:22;30.85;;;17.02;;
40815;SDS011;26535;48.788;9.214;2023-03-01T18:45:48;29.23;;;16.30;;
40815;SDS011;26535;48.788;9.214;2023-03-01T18:48:20;31.27;;;16.50;;
40815;SDS011;26535;48.788;9.214;2023-03-01T18:50:45;32.58;;;17.83;;
40815;SDS011;26535;48.788;9.214;2023-03-01T18:53:11;33.50;;;17.67;;
40815;SDS011;26535;48.788;9.214;2023-03-01T18:55:37;36.45;;;18.45;;
40815;SDS011;26535;48.788;9.214;2023-03-01T18:58:03;31.63;;;17.15;;
40815;SDS011;26535;48.788;9.214;2023-03-01T19:00:30;31.08;;;16.85;;
40815;SDS011;26535;48.788;9.214;2023-03-01T19:02:57;31.25;;;15.68;;
40815;SDS011;26535;48.788;9.214;2023-03-01T19:07:51;29.50;;;16.05;;
40815;SDS011;26535;48.788;9.214;2023-03-01T19:10:17;31.30;;;17.25;;
40815;SDS011;26535;48.788;9.214;2023-03-01T19:12:43;29.15;;;16.00;;
40815;SDS011;26535;48.788;9.214;2023-03-01T19:15:09;29.83;;;15.82;;
40815;SDS011;26535;48.788;9.214;2023-03-01T19:17:35;27.52;;;16.00;;
40815;SDS011;26535;48.788;9.214;2023-03-01T19:20:01;27.25;;;15.85;;
40815;SDS011;26535;48.788;9.214;2023-03-01T19:22:27;29.98;;;16.00;;
40815;SDS011;26535;48.788;9.214;2023-03-01T19:24:53;28.15;;;15.63;;
40815;SDS011;26535;48.788;9.214;2023-03-01T19:27:19;27.45;;;15.65;;
40815;SDS011;26535;48.788;9.214;2023-03-01T19:29:44;28.75;;;16.77;;
40815;SDS011;26535;48.788;9.214;2023-03-01T19:32:10;29.25;;;16.75;;
40815;SDS011;26535;48.788;9.214;2023-03-01T19:34:36;28.95;;;16.80;;
40815;SDS011;26535;48.788;9.214;2023-03-01T19:37:04;30.63;;;16.92;;
40815;SDS011;26535;48.788;9.214;2023-03-01T19:39:30;28.10;;;16.73;;
40815;SDS011;26535;48.788;9.214;2023-03-01T19:41:55;31.52;;;17.52;;
40815;SDS011;26535;48.788;9.214;2023-03-01T19:44:21;29.95;;;16.95;;
40815;SDS011;26535;48.788;9.214;2023-03-01T19:46:50;27.67;;;16.23;;
40815;SDS011;26535;48.788;9.214;2023-03-01T19:49:17;31.42;;;17.85;;
40815;SDS011;26535;48.788;9.214;2023-03-01T19:51:43;28.73;;;16.95;;
40815;SDS011;26535;48.788;9.214;2023-03-01T19:54:09;28.85;;;16.60;;
40815;SDS011;26535;48.788;9.214;2023-03-01T19:56:36;32.83;;;17.23;;
40815;SDS011;26535;48.788;9.214;2023-03-01T19:59:03;30.02;;;16.70;;
40815;SDS011;26535;48.788;9.214;2023-03-01T20:01:30;26.05;;;15.63;;
40815;SDS011;26535;48.788;9.214;2023-03-01T20:03:58;32.83;;;18.25;;
40815;SDS011;26535;48.788;9.214;2023-03-01T20:06:25;32.03;;;17.50;;
40815;SDS011;26535;48.788;9.214;2023-03-01T20:08:51;32.28;;;17.27;;
40815;SDS011;26535;48.788;9.214;2023-03-01T20:11:17;32.55;;;17.42;;
40815;SDS011;26535;48.788;9.214;2023-03-01T20:13:43;35.10;;;18.90;;
40815;SDS011;26535;48.788;9.214;2023-03-01T20:16:09;33.53;;;18.33;;
40815;SDS011;26535;48.788;9.214;2023-03-01T20:18:36;33.17;;;18.65;;
40815;SDS011;26535;48.788;9.214;2023-03-01T20:21:02;30.33;;;17.98;;
40815;SDS011;26535;48.788;9.214;2023-03-01T20:23:28;30.33;;;17.95;;
40815;SDS011;26535;48.788;9.214;2023-03-01T20:26:07;32.28;;;18.13;;
40815;SDS011;26535;48.788;9.214;2023-03-01T20:28:34;35.92;;;19.85;;
40815;SDS011;26535;48.788;9.214;2023-03-01T20:31:05;37.30;;;20.17;;
40815;SDS011;26535;48.788;9.214;2023-03-01T20:33:33;32.50;;;17.67;;
40815;SDS011;26535;48.788;9.214;2023-03-01T20:35:58;31.20;;;17.58;;
40815;SDS011;26535;48.788;9.214;2023-03-01T20:38:25;32.72;;;17.45;;
40815;SDS011;26535;48.788;9.214;2023-03-01T20:40:58;30.15;;;17.33;;
40815;SDS011;26535;48.788;9.214;2023-03-01T20:43:28;31.50;;;17.35;;
40815;SDS011;26535;48.788;9.214;2023-03-01T20:45:54;29.40;;;16.25;;
40815;SDS011;26535;48.788;9.214;2023-03-01T20:48:20;28.05;;;16.60;;
40815;SDS011;26535;48.788;9.214;2023-03-01T20:50:46;29.17;;;15.90;;
40815;SDS011;26535;48.788;9.214;2023-03-01T20:53:12;28.23;;;16.10;;
40815;SDS011;26535;48.788;9.214;2023-03-01T20:55:38;31.02;;;16.40;;
40815;SDS011;26535;48.788;9.214;2023-03-01T20:58:03;29.52;;;15.95;;
40815;SDS011;26535;48.788;9.214;2023-03-01T21:00:29;26.33;;;16.60;;
40815;SDS011;26535;48.788;9.214;2023-03-01T21:02:55;30.23;;;16.23;;
40815;SDS011;26535;48.788;9.214;2023-03-01T21:05:21;26.70;;;15.60;;
40815;SDS011;26535;48.788;9.214;2023-03-01T21:07:47;27.90;;;16.08;;
40815;SDS011;26535;48.788;9.214;2023-03-01T21:10:14;27.73;;;15.77;;
40815;SDS011;26535;48.788;9.214;2023-03-01T21:12:40;29.55;;;15.27;;
40815;SDS011;26535;48.788;9.214;2023-03-01T21:15:06;27.50;;;15.65;;
40815;SDS011;26535;48.788;9.214;2023-03-01T21:17:32;30.42;;;16.15;;
40815;SDS011;26535;48.788;9.214;2023-03-01T21:19:57;27.40;;;14.85;;
40815;SDS011;26535;48.788;9.214;2023-03-01T21:22:23;27.58;;;15.73;;
40815;SDS011;26535;48.788;9.214;2023-03-01T21:24:49;28.70;;;15.85;;
40815;SDS011;26535;48.788;9.214;2023-03-01T21:27:15;28.42;;;16.23;;
40815;SDS011;26535;48.788;9.214;2023-03-01T21:29:43;33.33;;;16.80;;
40815;SDS011;26535;48.788;9.214;2023-03-01T21:32:10;31.35;;;16.27;;
40815;SDS011;26535;48.788;9.214;2023-03-01T21:34:36;30.80;;;16.05;;
40815;SDS011;26535;48.788;9.214;2023-03-01T21:37:04;30.38;;;17.05;;
40815;SDS011;26535;48.788;9.214;2023-03-01T21:39:31;29.15;;;16.45;;
40815;SDS011;26535;48.788;9.214;2023-03-01T21:41:58;28.40;;;16.30;;
40815;SDS011;26535;48.788;9.214;2023-03-01T21:44:25;26.95;;;15.18;;
40815;SDS011;26535;48.788;9.214;2023-03-01T21:46:53;29.98;;;17.48;;
40815;SDS011;26535;48.788;9.214;2023-03-01T21:49:19;32.10;;;18.30;;
40815;SDS011;26535;48.788;9.214;2023-03-01T21:51:46;28.67;;;16.33;;
40815;SDS011;26535;48.788;9.214;2023-03-01T21:54:13;30.92;;;16.75;;
40815;SDS011;26535;48.788;9.214;2023-03-01T21:56:40;26.37;;;15.13;;
40815;SDS011;26535;48.788;9.214;2023-03-01T21:59:07;29.42;;;16.55;;
40815;SDS011;26535;48.788;9.214;2023-03-01T22:01:38;36.50;;;19.90;;
40815;SDS011;26535;48.788;9.214;2023-03-01T22:04:04;31.30;;;18.80;;
40815;SDS011;26535;48.788;9.214;2023-03-01T22:06:32;30.73;;;18.45;;